createdAt,value
2023-01-03T00:02:00.891Z,101858.59
2023-01-03T00:04:27.941Z,101843.41
2023-01-03T00:06:55.271Z,101850.00
2023-01-03T00:09:23.771Z,101859.94
2023-01-03T00:12:11.822Z,101858.94
2023-01-03T00:14:40.757Z,101860.78
2023-01-03T00:17:08.044Z,101871.34
2023-01-03T00:19:39.206Z,101874.94
2023-01-03T00:22:05.966Z,101850.22
2023-01-03T00:24:32.924Z,101879.34
2023-01-03T00:26:59.885Z,101886.63
2023-01-03T00:29:26.700Z,101881.69
2023-01-03T00:31:53.443Z,101892.34
2023-01-03T00:34:20.097Z,101890.44
2023-01-03T00:36:46.856Z,101903.13
2023-01-03T00:39:13.568Z,101898.44
2023-01-03T00:41:40.693Z,101905.88
2023-01-03T00:44:07.480Z,101907.91
2023-01-03T00:46:34.380Z,101913.88
2023-01-03T00:49:01.846Z,101912.94
2023-01-03T00:51:31.495Z,101917.34
2023-01-03T00:53:59.429Z,101926.03
2023-01-03T00:56:29.248Z,101938.47
2023-01-03T00:58:56.400Z,101938.56
2023-01-03T01:01:24.672Z,101942.16
2023-01-03T01:03:56.262Z,101945.94
2023-01-03T01:06:25.758Z,101957.47
2023-01-03T01:08:54.315Z,101959.31
2023-01-03T01:11:21.557Z,101970.06
2023-01-03T01:13:49.047Z,101972.72
2023-01-03T01:16:19.681Z,101984.22
2023-01-03T01:18:48.147Z,101989.38
2023-01-03T01:21:17.596Z,101991.97
2023-01-03T01:23:45.121Z,101996.53
2023-01-03T01:26:14.418Z,102000.13
2023-01-03T01:28:41.732Z,102004.69
2023-01-03T01:31:09.799Z,102006.25
2023-01-03T01:33:37.420Z,102015.50
2023-01-03T01:36:09.168Z,102009.09
2023-01-03T01:38:36.048Z,102024.13
2023-01-03T01:41:02.760Z,102024.13
2023-01-03T01:43:48.069Z,102025.84
2023-01-03T01:46:28.446Z,102020.44
2023-01-03T01:49:04.225Z,102026.84
2023-01-03T01:51:33.543Z,102019.75
2023-01-03T01:54:02.768Z,102024.97
2023-01-03T01:56:50.488Z,102023.00
2023-01-03T01:59:17.208Z,102029.25
2023-01-03T02:01:45.905Z,102028.34
2023-01-03T02:04:21.262Z,102031.00
2023-01-03T02:06:47.985Z,102030.13
2023-01-03T02:09:14.711Z,102036.28
2023-01-03T02:12:42.181Z,102044.31
2023-01-03T02:15:41.167Z,102043.56
2023-01-03T02:18:26.061Z,102041.00
2023-01-03T02:21:24.063Z,102047.06
2023-01-03T02:24:18.213Z,102053.34
2023-01-03T02:26:49.683Z,102065.94
2023-01-03T02:29:20.999Z,102060.63
2023-01-03T02:32:12.958Z,102066.72
2023-01-03T02:34:50.692Z,102077.44
2023-01-03T02:37:52.780Z,102069.31
2023-01-03T02:40:27.362Z,102082.72
2023-01-03T02:43:28.381Z,102083.59
2023-01-03T02:46:25.913Z,102083.59
2023-01-03T02:48:58.843Z,102088.94
2023-01-03T02:51:31.320Z,102092.59
2023-01-03T02:53:58.802Z,102097.06
2023-01-03T02:56:44.865Z,102097.09
2023-01-03T02:59:15.097Z,102107.88
2023-01-03T03:01:45.634Z,102115.13
2023-01-03T03:04:13.027Z,102109.81
2023-01-03T03:06:58.400Z,102114.28
2023-01-03T03:09:25.273Z,102120.50
2023-01-03T03:12:12.004Z,102116.88
2023-01-03T03:14:48.042Z,102109.75
2023-01-03T03:17:21.008Z,102115.03
2023-01-03T03:20:14.619Z,102113.25
2023-01-03T03:23:15.352Z,102107.00
2023-01-03T03:25:47.160Z,102115.00
2023-01-03T03:28:35.121Z,102115.84
2023-01-03T03:31:23.105Z,102116.75
2023-01-03T03:34:06.249Z,102123.00
2023-01-03T03:37:03.356Z,102122.19
2023-01-03T03:39:50.186Z,102124.81
2023-01-03T03:43:01.741Z,102134.59
2023-01-03T03:45:59.862Z,102133.72
2023-01-03T03:49:28.157Z,102142.66
2023-01-03T03:51:57.517Z,102144.50
2023-01-03T03:54:24.961Z,102144.47
2023-01-03T03:56:57.919Z,102139.16
2023-01-03T03:59:25.453Z,102146.22
2023-01-03T04:01:53.689Z,102143.59
2023-01-03T04:04:24.558Z,102149.75
2023-01-03T04:06:52.317Z,102161.28
2023-01-03T04:09:19.553Z,102163.06
2023-01-03T04:11:46.324Z,102165.72
2023-01-03T04:14:13.327Z,102171.03
2023-01-03T04:16:41.274Z,102174.56
2023-01-03T04:19:08.677Z,102181.66
2023-01-03T04:21:36.828Z,102180.78
2023-01-03T04:24:07.041Z,102193.16
2023-01-03T04:26:33.749Z,102186.94
2023-01-03T04:29:00.627Z,102186.09
2023-01-03T04:31:27.304Z,102181.66
2023-01-03T04:33:54.243Z,102204.66
2023-01-03T04:36:21.261Z,102191.38
2023-01-03T04:38:47.972Z,102188.75
2023-01-03T04:41:14.671Z,102193.16
2023-01-03T04:44:00.048Z,102207.34
2023-01-03T04:46:26.942Z,102214.44
2023-01-03T04:48:53.735Z,102215.28
2023-01-03T04:51:20.431Z,102217.09
2023-01-03T04:53:47.077Z,102222.41
2023-01-03T04:56:13.829Z,102224.19
2023-01-03T04:58:40.540Z,102225.06
2023-01-03T05:01:10.344Z,102225.94
2023-01-03T05:03:38.253Z,102244.50
2023-01-03T05:06:09.232Z,102246.28
2023-01-03T05:08:36.071Z,102239.22
2023-01-03T05:11:03.605Z,102248.91
2023-01-03T05:13:30.351Z,102250.66
2023-01-03T05:15:57.309Z,102257.75
2023-01-03T05:18:24.018Z,102258.66
2023-01-03T05:21:09.000Z,102254.22
2023-01-03T05:23:54.319Z,102260.22
2023-01-03T05:26:21.984Z,102264.75
2023-01-03T05:28:51.472Z,102265.66
2023-01-03T05:31:18.306Z,102254.13
2023-01-03T05:33:45.098Z,102253.19
2023-01-03T05:36:12.114Z,102253.22
2023-01-03T05:38:38.867Z,102256.75
2023-01-03T05:41:06.029Z,102262.09
2023-01-03T05:43:32.838Z,102259.44
2023-01-03T05:45:59.659Z,102271.81
2023-01-03T05:48:27.258Z,102263.81
2023-01-03T05:50:57.493Z,102278.91
2023-01-03T05:53:25.258Z,102265.59
2023-01-03T05:55:51.947Z,102266.44
2023-01-03T05:58:18.890Z,102273.56
2023-01-03T06:00:45.700Z,102278.88
2023-01-03T06:03:13.735Z,102270.00
2023-01-03T06:05:46.121Z,102277.03
2023-01-03T06:08:16.441Z,102284.16
2023-01-03T06:10:43.168Z,102288.59
2023-01-03T06:13:09.951Z,102281.53
2023-01-03T06:15:36.627Z,102282.34
2023-01-03T06:18:03.360Z,102293.00
2023-01-03T06:20:30.402Z,102286.81
2023-01-03T06:22:57.718Z,102292.13
2023-01-03T06:25:24.742Z,102304.50
2023-01-03T06:27:51.491Z,102300.94
2023-01-03T06:30:18.453Z,102303.56
2023-01-03T06:32:45.268Z,102295.59
2023-01-03T06:35:12.105Z,102300.91
2023-01-03T06:37:39.310Z,102307.97
2023-01-03T06:40:12.105Z,102310.63
2023-01-03T06:42:44.776Z,102307.97
2023-01-03T06:45:32.077Z,102319.44
2023-01-03T06:48:17.538Z,102315.94
2023-01-03T06:51:03.355Z,102320.34
2023-01-03T06:53:36.613Z,102326.53
2023-01-03T06:56:04.205Z,102335.34
2023-01-03T06:58:31.101Z,102338.88
2023-01-03T07:00:59.223Z,102340.63
2023-01-03T07:03:26.000Z,102344.13
2023-01-03T07:05:52.764Z,102342.34
2023-01-03T07:08:19.659Z,102339.63
2023-01-03T07:10:46.507Z,102334.31
2023-01-03T07:13:32.462Z,102349.41
2023-01-03T07:15:59.377Z,102353.81
2023-01-03T07:18:29.116Z,102352.09
2023-01-03T07:20:55.927Z,102357.31
2023-01-03T07:23:22.717Z,102365.22
2023-01-03T07:25:49.558Z,102361.72
2023-01-03T07:28:17.171Z,102362.63
2023-01-03T07:30:45.996Z,102370.47
2023-01-03T07:33:14.997Z,102369.56
2023-01-03T07:35:42.053Z,102374.88
2023-01-03T07:38:09.651Z,102371.44
2023-01-03T07:40:36.364Z,102374.06
2023-01-03T07:43:22.362Z,102368.72
2023-01-03T07:45:49.172Z,102386.41
2023-01-03T07:48:16.015Z,102377.56
2023-01-03T07:50:42.807Z,102371.34
2023-01-03T07:53:10.151Z,102382.78
2023-01-03T07:55:37.941Z,102379.28
2023-01-03T07:58:04.855Z,102388.13
2023-01-03T08:00:31.785Z,102400.47
2023-01-03T08:02:58.686Z,102383.63
2023-01-03T08:05:25.719Z,102403.94
2023-01-03T08:07:53.805Z,102398.59
2023-01-03T08:10:39.644Z,102397.56
2023-01-03T08:13:18.292Z,102405.50
2023-01-03T08:15:55.453Z,102400.28
2023-01-03T08:18:24.412Z,102411.81
2023-01-03T08:20:55.388Z,102414.47
2023-01-03T08:23:23.198Z,102415.34
2023-01-03T08:25:50.310Z,102419.72
2023-01-03T08:28:17.133Z,102405.53
2023-01-03T08:30:47.071Z,102425.97
2023-01-03T08:33:15.380Z,102430.38
2023-01-03T08:35:45.748Z,102421.63
2023-01-03T08:38:15.545Z,102434.91
2023-01-03T08:40:45.404Z,102430.50
2023-01-03T08:43:12.863Z,102437.50
2023-01-03T08:45:40.212Z,102439.28
2023-01-03T08:48:08.794Z,102436.63
2023-01-03T08:50:35.555Z,102441.09
2023-01-03T08:53:02.679Z,102441.16
2023-01-03T08:55:29.378Z,102444.75
2023-01-03T08:57:56.750Z,102446.53
2023-01-03T09:00:23.576Z,102449.00
2023-01-03T09:02:50.733Z,102446.50
2023-01-03T09:05:17.900Z,102455.50
2023-01-03T09:07:44.656Z,102450.25
2023-01-03T09:10:12.278Z,102447.66
2023-01-03T09:12:39.178Z,102453.94
2023-01-03T09:15:07.455Z,102458.47
2023-01-03T09:17:34.410Z,102465.63
2023-01-03T09:20:01.179Z,102455.97
2023-01-03T09:22:27.951Z,102470.28
2023-01-03T09:24:55.747Z,102469.41
2023-01-03T09:27:22.648Z,102466.81
2023-01-03T09:29:49.591Z,102468.66
2023-01-03T09:32:16.537Z,102465.03
2023-01-03T09:34:43.545Z,102474.84
2023-01-03T09:37:10.626Z,102476.66
2023-01-03T09:39:37.311Z,102473.13
2023-01-03T09:42:24.145Z,102468.72
2023-01-03T09:44:52.562Z,102477.56
2023-01-03T09:47:23.109Z,102473.09
2023-01-03T09:50:26.746Z,102467.78
2023-01-03T09:53:01.824Z,102475.78
2023-01-03T09:55:55.694Z,102482.88
2023-01-03T09:58:41.187Z,102474.84
2023-01-03T10:01:38.850Z,102466.88
2023-01-03T10:04:18.194Z,102469.53
2023-01-03T10:07:04.129Z,102465.94
2023-01-03T10:09:57.620Z,102463.25
2023-01-03T10:12:53.770Z,102459.72
2023-01-03T10:15:30.533Z,102469.47
2023-01-03T10:18:27.690Z,102476.50
2023-01-03T10:21:02.897Z,102478.34
2023-01-03T10:23:30.700Z,102479.25
2023-01-03T10:25:58.020Z,102477.56
2023-01-03T10:28:26.911Z,102480.16
2023-01-03T10:31:08.279Z,102477.47
2023-01-03T10:33:45.662Z,102481.06
2023-01-03T10:36:13.632Z,102484.59
2023-01-03T10:38:47.938Z,102479.34
2023-01-03T10:41:23.392Z,102470.41
2023-01-03T10:43:58.290Z,102475.69
2023-01-03T10:46:27.308Z,102476.66
2023-01-03T10:51:53.291Z,102481.06
2023-01-03T10:54:20.040Z,102486.41
2023-01-03T10:56:47.937Z,102481.97
2023-01-03T10:59:28.999Z,102473.97
2023-01-03T11:02:07.455Z,102479.25
2023-01-03T11:04:38.031Z,102469.47
2023-01-03T11:07:14.040Z,102468.59
2023-01-03T11:09:57.072Z,102473.06
2023-01-03T11:12:38.683Z,102479.25
2023-01-03T11:15:14.883Z,102477.50
2023-01-03T11:17:58.769Z,102478.44
2023-01-03T11:20:44.487Z,102488.13
2023-01-03T11:23:56.285Z,102471.34
2023-01-03T11:26:50.635Z,102483.75
2023-01-03T11:29:36.061Z,102476.66
2023-01-03T11:32:27.225Z,102464.25
2023-01-03T11:35:24.668Z,102468.69
2023-01-03T11:38:02.482Z,102469.56
2023-01-03T11:40:52.445Z,102459.78
2023-01-03T11:43:35.325Z,102468.66
2023-01-03T11:46:34.347Z,102466.91
2023-01-03T11:49:09.994Z,102465.13
2023-01-03T11:51:51.039Z,102465.13
2023-01-03T11:54:36.469Z,102462.47
2023-01-03T11:57:14.109Z,102470.47
2023-01-03T11:59:59.664Z,102464.25
2023-01-03T12:02:52.901Z,102470.47
2023-01-03T12:05:34.715Z,102469.59
2023-01-03T12:08:08.668Z,102470.44
2023-01-03T12:10:40.247Z,102480.25
2023-01-03T12:13:13.175Z,102481.09
2023-01-03T12:15:45.685Z,102468.72
2023-01-03T12:18:39.719Z,102479.31
2023-01-03T12:21:22.269Z,102477.56
2023-01-03T12:24:18.310Z,102466.91
2023-01-03T12:26:50.888Z,102465.16
2023-01-03T12:30:00.638Z,102472.22
2023-01-03T12:32:54.132Z,102471.38
2023-01-03T12:35:34.326Z,102460.69
2023-01-03T12:38:04.387Z,102464.22
2023-01-03T12:40:54.544Z,102466.88
2023-01-03T12:43:29.006Z,102471.31
2023-01-03T12:46:12.071Z,102471.28
2023-01-03T12:48:49.966Z,102480.22
2023-01-03T12:51:20.371Z,102466.00
2023-01-03T12:53:56.188Z,102464.25
2023-01-03T12:56:51.842Z,102473.13
2023-01-03T12:59:54.864Z,102479.31
2023-01-03T13:02:29.915Z,102466.84
2023-01-03T13:05:14.229Z,102456.28
2023-01-03T13:07:43.740Z,102460.72
2023-01-03T13:10:14.459Z,102445.63
2023-01-03T13:12:45.495Z,102450.09
2023-01-03T13:15:23.711Z,102440.31
2023-01-03T13:17:50.897Z,102435.00
2023-01-03T13:20:30.004Z,102432.34
2023-01-03T13:22:57.855Z,102437.66
2023-01-03T13:25:27.900Z,102439.44
2023-01-03T13:27:58.506Z,102436.75
2023-01-03T13:30:36.288Z,102436.72
2023-01-03T13:33:12.075Z,102438.50
2023-01-03T13:35:44.827Z,102443.78
2023-01-03T13:38:35.952Z,102449.19
2023-01-03T13:41:23.881Z,102444.75
2023-01-03T13:43:53.673Z,102451.84
2023-01-03T13:46:26.562Z,102453.63
2023-01-03T13:48:56.629Z,102444.75
2023-01-03T13:51:23.258Z,102443.88
2023-01-03T13:54:00.707Z,102440.34
2023-01-03T13:56:33.015Z,102440.34
2023-01-03T13:59:04.839Z,102445.66
2023-01-03T14:01:41.097Z,102452.72
2023-01-03T14:04:23.028Z,102455.41
2023-01-03T14:07:33.641Z,102439.34
2023-01-03T14:10:06.912Z,102450.94
2023-01-03T14:12:59.766Z,102449.19
2023-01-03T14:15:27.226Z,102452.72
2023-01-03T14:17:56.448Z,102455.41
2023-01-03T14:20:29.613Z,102450.94
2023-01-03T14:22:57.223Z,102450.06
2023-01-03T14:25:35.849Z,102458.91
2023-01-03T14:28:06.669Z,102447.38
2023-01-03T14:30:34.933Z,102451.81
2023-01-03T14:33:01.671Z,102452.66
2023-01-03T14:35:46.546Z,102444.69
2023-01-03T14:38:29.716Z,102460.63
2023-01-03T14:40:57.365Z,102465.97
2023-01-03T14:43:33.648Z,102454.41
2023-01-03T14:46:03.970Z,102455.28
2023-01-03T14:48:30.722Z,102451.69
2023-01-03T14:51:01.429Z,102459.72
2023-01-03T14:53:28.836Z,102459.66
2023-01-03T14:55:57.323Z,102458.75
2023-01-03T14:58:40.037Z,102461.38
2023-01-03T15:01:08.615Z,102463.16
2023-01-03T15:03:37.909Z,102465.72
2023-01-03T15:06:27.967Z,102462.13
2023-01-03T15:08:58.020Z,102466.53
2023-01-03T15:11:35.514Z,102469.16
2023-01-03T15:14:04.561Z,102469.09
2023-01-03T15:16:42.278Z,102467.28
2023-01-03T15:19:17.837Z,102474.31
2023-01-03T15:21:44.673Z,102475.19
2023-01-03T15:24:17.115Z,102477.78
2023-01-03T15:26:46.911Z,102478.63
2023-01-03T15:29:28.727Z,102467.00
2023-01-03T15:31:55.769Z,102476.69
2023-01-03T15:34:28.600Z,102483.72
2023-01-03T15:36:58.548Z,102481.91
2023-01-03T15:39:27.383Z,102485.34
2023-01-03T15:42:43.475Z,102490.56
2023-01-03T15:45:11.945Z,102481.63
2023-01-03T15:47:39.792Z,102483.31
2023-01-03T15:50:07.050Z,102489.50
2023-01-03T15:52:33.885Z,102499.13
2023-01-03T15:55:00.562Z,102486.72
2023-01-03T15:57:29.916Z,102497.31
2023-01-03T15:59:58.258Z,102493.75
2023-01-03T16:02:26.129Z,102493.72
2023-01-03T16:04:53.865Z,102494.50
2023-01-03T16:07:20.801Z,102495.38
2023-01-03T16:09:48.224Z,102502.38
2023-01-03T16:12:18.099Z,102487.34
2023-01-03T16:14:47.956Z,102503.13
2023-01-03T16:17:24.377Z,102489.81
2023-01-03T16:19:52.339Z,102487.97
2023-01-03T16:22:36.365Z,102490.59
2023-01-03T16:25:05.438Z,102484.34
2023-01-03T16:27:32.478Z,102487.91
2023-01-03T16:29:59.514Z,102486.97
2023-01-03T16:32:28.270Z,102488.59
2023-01-03T16:34:58.403Z,102485.94
2023-01-03T16:37:25.434Z,102492.91
2023-01-03T16:39:52.194Z,102504.31
2023-01-03T16:42:21.549Z,102502.59
2023-01-03T16:44:48.639Z,102502.59
2023-01-03T16:47:44.838Z,102499.81
2023-01-03T16:50:17.574Z,102494.44
2023-01-03T16:52:52.585Z,102496.16
2023-01-03T16:55:28.518Z,102493.41
2023-01-03T16:57:55.927Z,102500.28
2023-01-03T17:00:25.667Z,102498.50
2023-01-03T17:02:54.677Z,102500.19
2023-01-03T17:05:22.355Z,102506.31
2023-01-03T17:07:51.318Z,102500.03
2023-01-03T17:10:26.412Z,102500.00
2023-01-03T17:12:54.084Z,102504.38
2023-01-03T17:15:20.843Z,102504.34
2023-01-03T17:17:47.693Z,102506.06
2023-01-03T17:20:18.859Z,102505.06
2023-01-03T17:22:52.205Z,102513.72
2023-01-03T17:25:20.011Z,102519.91
2023-01-03T17:27:50.485Z,102507.56
2023-01-03T17:30:20.558Z,102506.53
2023-01-03T17:32:47.558Z,102510.22
2023-01-03T17:35:17.795Z,102515.59
2023-01-03T17:38:14.557Z,102514.72
2023-01-03T17:40:34.157Z,102515.59
2023-01-03T17:43:02.289Z,102515.69
2023-01-03T17:45:48.654Z,102505.13
2023-01-03T17:48:34.204Z,102526.44
2023-01-03T17:51:01.971Z,102514.91
2023-01-03T17:53:29.091Z,102509.44
2023-01-03T17:55:55.999Z,102519.97
2023-01-03T17:58:32.186Z,102516.53
2023-01-03T18:00:59.316Z,102514.78
2023-01-03T18:03:26.273Z,102512.03
2023-01-03T18:05:53.275Z,102511.19
2023-01-03T18:08:21.673Z,102513.09
2023-01-03T18:10:49.442Z,102498.09
2023-01-03T18:13:42.668Z,102492.00
2023-01-03T18:16:14.415Z,102493.78
2023-01-03T18:18:41.560Z,102489.31
2023-01-03T18:21:23.128Z,102491.03
2023-01-03T18:23:59.102Z,102487.50
2023-01-03T18:26:32.431Z,102489.00
2023-01-03T18:28:59.429Z,102487.22
2023-01-03T18:31:26.453Z,102492.66
2023-01-03T18:33:53.339Z,102489.09
2023-01-03T18:36:30.761Z,102485.50
2023-01-03T18:39:12.098Z,102484.63
2023-01-03T18:41:40.395Z,102488.97
2023-01-03T18:44:18.378Z,102495.16
2023-01-03T18:46:47.807Z,102491.56
2023-01-03T18:49:15.052Z,102484.47
2023-01-03T18:51:41.982Z,102493.22
2023-01-03T18:54:12.692Z,102486.97
2023-01-03T18:56:41.691Z,102490.53
2023-01-03T18:59:19.357Z,102493.09
2023-01-03T19:01:46.240Z,102490.22
2023-01-03T19:04:13.241Z,102492.94
2023-01-03T19:06:42.592Z,102487.59
2023-01-03T19:09:11.380Z,102486.63
2023-01-03T19:11:38.346Z,102483.00
2023-01-03T19:14:05.186Z,102483.13
2023-01-03T19:16:34.365Z,102485.00
2023-01-03T19:19:01.700Z,102491.06
2023-01-03T19:21:37.346Z,102492.16
2023-01-03T19:24:08.417Z,102492.13
2023-01-03T19:26:56.982Z,102486.09
2023-01-03T19:29:26.768Z,102493.22
2023-01-03T19:31:55.437Z,102472.00
2023-01-03T19:34:24.144Z,102471.22
2023-01-03T19:36:51.278Z,102461.50
2023-01-03T19:39:24.401Z,102468.59
2023-01-03T19:42:13.998Z,102462.53
2023-01-03T19:44:41.490Z,102461.59
2023-01-03T19:47:17.299Z,102456.50
2023-01-03T19:49:47.356Z,102465.28
2023-01-03T19:52:15.062Z,102452.94
2023-01-03T19:54:41.971Z,102452.91
2023-01-03T19:57:22.897Z,102437.34
2023-01-03T19:59:52.970Z,102437.47
2023-01-03T20:02:39.682Z,102439.38
2023-01-03T20:05:14.727Z,102440.22
2023-01-03T20:07:41.871Z,102439.28
2023-01-03T20:10:13.191Z,102439.44
2023-01-03T20:12:40.079Z,102440.28
2023-01-03T20:15:17.961Z,102436.72
2023-01-03T20:17:44.716Z,102443.84
2023-01-03T20:20:12.785Z,102433.38
2023-01-03T20:25:34.851Z,102423.88
2023-01-03T20:28:01.870Z,102425.72
2023-01-03T20:30:31.178Z,102428.34
2023-01-03T20:32:58.178Z,102415.16
2023-01-03T20:36:07.549Z,102413.75
2023-01-03T20:38:16.990Z,102420.28
2023-01-03T20:40:44.055Z,102420.34
2023-01-03T20:43:14.678Z,102419.56
2023-01-03T20:45:41.496Z,102430.00
2023-01-03T20:48:19.466Z,102432.91
2023-01-03T20:50:50.320Z,102423.16
2023-01-03T20:53:20.055Z,102426.59
2023-01-03T20:55:48.427Z,102414.22
2023-01-03T20:58:17.434Z,102421.38
2023-01-03T21:00:44.914Z,102415.28
2023-01-03T21:03:11.802Z,102417.09
2023-01-03T21:05:38.733Z,102412.56
2023-01-03T21:08:25.292Z,102410.84
2023-01-03T21:10:55.006Z,102406.56
2023-01-03T21:13:22.267Z,102407.50
2023-01-03T21:15:49.915Z,102405.72
2023-01-03T21:18:17.255Z,102409.34
2023-01-03T21:20:44.566Z,102408.53
2023-01-03T21:23:21.937Z,102404.97
2023-01-03T21:25:50.299Z,102412.94
2023-01-03T21:28:17.144Z,102397.91
2023-01-03T21:30:44.052Z,102399.63
2023-01-03T21:33:16.812Z,102389.03
2023-01-03T21:35:43.720Z,102393.31
2023-01-03T21:38:11.160Z,102376.56
2023-01-03T21:40:37.858Z,102381.94
2023-01-03T21:43:05.403Z,102384.56
2023-01-03T21:45:45.463Z,102381.22
2023-01-03T21:48:14.813Z,102388.22
2023-01-03T21:50:46.725Z,102393.56
2023-01-03T21:53:15.417Z,102391.00
2023-01-03T21:55:42.527Z,102387.47
2023-01-03T21:58:13.219Z,102383.13
2023-01-03T22:00:40.092Z,102387.63
2023-01-03T22:03:25.560Z,102386.75
2023-01-03T22:05:52.302Z,102384.09
2023-01-03T22:08:19.039Z,102384.19
2023-01-03T22:10:48.354Z,102381.56
2023-01-03T22:13:15.091Z,102384.22
2023-01-03T22:15:41.773Z,102378.81
2023-01-03T22:18:11.085Z,102380.56
2023-01-03T22:20:39.096Z,102377.06
2023-01-03T22:23:06.946Z,102373.97
2023-01-03T22:25:33.727Z,102378.63
2023-01-03T22:28:00.463Z,102374.28
2023-01-03T22:30:27.374Z,102369.88
2023-01-03T22:32:57.081Z,102370.59
2023-01-03T22:35:24.033Z,102360.97
2023-01-03T22:37:50.953Z,102351.22
2023-01-03T22:40:18.172Z,102360.91
2023-01-03T22:42:44.855Z,102354.69
2023-01-03T22:45:11.806Z,102341.47
2023-01-03T22:47:38.727Z,102347.53
2023-01-03T22:50:07.402Z,102360.81
2023-01-03T22:52:35.487Z,102351.78
2023-01-03T22:55:02.315Z,102347.41
2023-01-03T22:57:29.066Z,102353.59
2023-01-03T22:59:55.880Z,102340.22
2023-01-03T23:02:28.563Z,102332.25
2023-01-03T23:04:55.970Z,102334.81
2023-01-03T23:07:22.725Z,102343.66
2023-01-03T23:09:49.561Z,102343.59
2023-01-03T23:12:34.805Z,102340.91
2023-01-03T23:15:01.511Z,102331.13
2023-01-03T23:17:46.928Z,102335.50
2023-01-03T23:20:13.678Z,102323.09
2023-01-03T23:22:40.511Z,102319.56
2023-01-03T23:25:08.040Z,102320.38
2023-01-03T23:27:34.886Z,102309.78
2023-01-03T23:30:01.612Z,102300.88
2023-01-03T23:32:28.264Z,102295.63
2023-01-03T23:34:55.051Z,102298.28
2023-01-03T23:37:21.719Z,102293.78
2023-01-03T23:39:48.758Z,102281.34
2023-01-03T23:42:15.423Z,102286.56
2023-01-03T23:44:42.365Z,102280.47
2023-01-03T23:47:12.698Z,102285.69
2023-01-03T23:49:39.788Z,102284.69
2023-01-03T23:52:06.491Z,102280.25
2023-01-03T23:54:33.262Z,102276.72
2023-01-03T23:56:59.951Z,102285.53
2023-01-03T23:59:26.643Z,102269.69
